createdAt,value
2023-05-21T17:17:07.774Z,44.80
2023-05-21T17:19:35.971Z,45.40
2023-05-21T17:22:04.091Z,45.50
2023-05-21T17:24:32.113Z,45.60
2023-05-21T17:27:00.183Z,45.70
2023-05-21T17:29:28.202Z,45.80
2023-05-21T17:31:58.052Z,45.90
2023-05-21T17:34:29.455Z,46.00
2023-05-21T17:36:58.020Z,46.70
2023-05-21T17:39:26.348Z,46.10
2023-05-21T17:41:54.372Z,46.00
2023-05-21T17:44:22.636Z,46.00
2023-05-21T17:46:50.910Z,46.00
2023-05-21T17:49:20.664Z,46.00
2023-05-21T17:51:48.983Z,46.00
2023-05-21T17:54:17.050Z,46.00
2023-05-21T17:56:46.559Z,46.10
2023-05-21T17:59:15.962Z,46.10
2023-05-21T18:01:43.977Z,46.10
2023-05-21T18:04:12.835Z,46.10
2023-05-21T18:06:42.260Z,46.20
2023-05-21T18:09:14.210Z,46.40
2023-05-21T18:11:43.659Z,46.90
2023-05-21T18:14:11.664Z,46.30
2023-05-21T18:16:39.737Z,46.20
2023-05-21T18:19:07.883Z,46.40
2023-05-21T18:21:35.966Z,46.50
2023-05-21T18:24:06.422Z,46.60
2023-05-21T18:26:34.434Z,47.10
2023-05-21T18:29:02.438Z,46.50
2023-05-21T18:31:30.548Z,49.10
2023-05-21T18:33:59.160Z,46.50
2023-05-21T18:36:27.575Z,46.40
2023-05-21T18:38:55.584Z,46.40
2023-05-21T18:41:26.399Z,46.40
2023-05-21T18:43:54.441Z,46.40
2023-05-21T18:46:22.526Z,46.40
2023-05-21T18:48:50.562Z,46.40
2023-05-21T18:51:18.618Z,46.30
2023-05-21T18:53:46.675Z,46.40
2023-05-21T18:56:15.003Z,46.50
2023-05-21T18:58:44.363Z,46.30
2023-05-21T19:01:12.400Z,46.30
2023-05-21T19:03:40.483Z,47.00
2023-05-21T19:06:09.459Z,48.10
2023-05-21T19:11:07.281Z,45.80
2023-05-21T19:13:35.703Z,46.30
2023-05-21T19:16:10.894Z,46.30
2023-05-21T19:18:42.033Z,46.30
2023-05-21T19:31:25.229Z,45.30
2023-05-21T19:33:53.385Z,46.00
2023-05-21T19:36:21.925Z,46.10
2023-05-21T19:38:49.963Z,46.20
2023-05-21T19:41:17.980Z,46.20
2023-05-21T19:43:46.164Z,46.20
2023-05-21T19:46:16.586Z,46.10
2023-05-21T19:48:48.570Z,46.10
2023-05-21T19:51:16.745Z,46.10
2023-05-21T19:53:44.736Z,46.10
2023-05-21T19:56:12.806Z,46.10
2023-05-21T19:58:40.870Z,46.10
2023-05-21T20:01:08.917Z,46.10
2023-05-21T20:03:37.093Z,46.10
2023-05-21T20:06:06.696Z,46.10
2023-05-21T20:08:34.735Z,46.20
2023-05-21T20:13:31.175Z,45.30
2023-05-21T20:33:26.597Z,54.40
2023-05-21T20:38:25.721Z,54.20
2023-05-21T20:40:55.421Z,56.70
2023-05-21T20:43:24.443Z,58.00
2023-05-21T20:48:29.044Z,49.80
2023-05-21T20:50:57.454Z,56.60
2023-05-21T20:53:26.031Z,59.70
2023-05-21T20:55:55.547Z,62.10
2023-05-21T20:58:24.001Z,62.70
2023-05-21T21:00:52.127Z,62.70
2023-05-21T21:03:21.628Z,64.10
2023-05-21T21:05:49.989Z,63.70
2023-05-21T21:10:46.934Z,53.80
2023-05-21T21:15:44.830Z,52.10
2023-05-21T21:18:13.064Z,56.90
2023-05-21T21:20:42.635Z,58.30
2023-05-21T21:23:10.682Z,66.80
2023-05-21T21:25:38.657Z,70.30
2023-05-21T21:28:06.678Z,72.30
2023-05-21T21:40:29.823Z,45.80
2023-05-21T21:42:57.832Z,46.50
2023-05-21T21:45:25.927Z,47.30
2023-05-21T21:47:55.380Z,46.70
2023-05-21T21:50:23.426Z,46.70
2023-05-21T21:52:55.848Z,46.80
2023-05-21T21:55:23.869Z,46.80
2023-05-21T21:57:51.916Z,46.80
2023-05-21T22:00:20.997Z,46.80
2023-05-21T22:02:49.057Z,46.90
2023-05-21T22:05:19.315Z,46.90
2023-05-21T22:07:47.714Z,46.90
2023-05-21T22:10:16.164Z,46.90
2023-05-21T22:12:44.310Z,46.90
2023-05-21T22:15:18.479Z,47.00
2023-05-21T22:17:47.506Z,47.00
2023-05-21T22:20:17.453Z,47.00
2023-05-21T22:22:47.103Z,47.00
2023-05-21T22:25:15.153Z,47.10
2023-05-21T22:27:43.378Z,47.10
2023-05-21T22:30:12.149Z,47.70
2023-05-21T22:32:40.174Z,49.70
2023-05-21T22:35:09.052Z,51.40
2023-05-21T22:37:38.168Z,49.10
2023-05-21T22:40:09.185Z,54.40
2023-05-21T22:42:37.263Z,59.70
2023-05-21T22:45:05.909Z,58.40
2023-05-21T22:47:36.985Z,58.60
2023-05-21T22:50:05.454Z,59.10
2023-05-21T22:52:34.440Z,59.10
2023-05-21T22:55:02.625Z,61.60
2023-05-21T22:57:31.946Z,62.80
2023-05-21T22:59:59.953Z,69.70
2023-05-21T23:02:27.983Z,59.20
2023-05-21T23:04:56.034Z,59.60
2023-05-21T23:07:24.364Z,59.20
2023-05-21T23:09:52.366Z,60.90
2023-05-21T23:12:20.428Z,61.90
2023-05-21T23:14:49.808Z,63.50
2023-05-21T23:17:17.937Z,60.50
2023-05-21T23:19:45.909Z,60.10
2023-05-21T23:22:13.893Z,63.90
2023-05-21T23:24:41.933Z,63.60
2023-05-21T23:27:09.915Z,66.70
2023-05-21T23:29:37.948Z,71.60
2023-05-21T23:32:08.065Z,62.30
2023-05-21T23:34:36.316Z,52.50
2023-05-21T23:37:04.415Z,61.60
2023-05-21T23:39:32.381Z,47.40
2023-05-21T23:42:00.606Z,48.00
2023-05-21T23:44:28.593Z,49.60
2023-05-21T23:46:56.587Z,49.80
2023-05-21T23:49:25.944Z,52.20
2023-05-21T23:51:53.970Z,56.60
2023-05-21T23:54:21.952Z,61.20
2023-05-21T23:56:49.977Z,63.10
2023-05-21T23:59:18.664Z,59.90
